Snyder, Winston Field (KSNK)

NameWinston Field
CitySnyder
CountryUnited States
ICAOKSNK
IATA
Altitude741 m
CoordinatesGoogle Map
Live Air TrafficLiveATC.net
METARKSNK 210555Z AUTO 05003KT 10SM -RA SCT050 BKN070 OVC095 22/22 A2998 RMK AO2 T02160216
2019-09-21 05:55:00 Wind: Northeast (50°) 1.54 m/s - Visibility: 16093.4 m - Weather: Light Rain - Temperature: 22 °C - Dew point: 22 °C - Humidity: 100% - Pressure: 1015.24 hPa
Statistics

The table below shows the detailed information of all flights to/from Snyder, Winston Field (KSNK).